Terminal Aerodrome Forecast
Issued by NWS

Home | Current Version | Previous Version | Text Only | Print | Product List | Glossary On
Versions: 1 2 3 4 5 6 7 8 9 10 11 12 13 14 15 16 17 18 19
000
FTUS43 KMQT 211100
TAFSAW
TAF
KSAW 211121Z 2112/2212 17005KT P6SM BKN200
      TEMPO 2112/2113 5SM BR
     FM211700 23007KT P6SM VCSH BKN040
     FM212000 32009KT P6SM SCT100
     FM220300 32012G22KT P6SM BKN015
      AMD LTD TO CLD VIS AND WIND 2202/2210=

USA.gov is the U.S. government's official web portal to all federal, state and local government web resources and services.